sensor_id;sensor_type;location;lat;lon;timestamp;P1;durP1;ratioP1;P2;durP2;ratioP2
40931;SDS011;36257;46.052;12.540;2022-10-16T00:01:10;45.63;;;36.08;;
40931;SDS011;36257;46.052;12.540;2022-10-16T00:03:41;42.85;;;37.78;;
40931;SDS011;36257;46.052;12.540;2022-10-16T00:06:08;43.97;;;36.60;;
40931;SDS011;36257;46.052;12.540;2022-10-16T00:08:35;45.63;;;37.38;;
40931;SDS011;36257;46.052;12.540;2022-10-16T00:11:03;41.65;;;35.50;;
40931;SDS011;36257;46.052;12.540;2022-10-16T00:13:31;45.33;;;37.20;;
40931;SDS011;36257;46.052;12.540;2022-10-16T00:15:58;44.13;;;36.50;;
40931;SDS011;36257;46.052;12.540;2022-10-16T00:18:25;44.28;;;38.35;;
40931;SDS011;36257;46.052;12.540;2022-10-16T00:20:52;50.17;;;38.47;;
40931;SDS011;36257;46.052;12.540;2022-10-16T00:23:17;55.35;;;39.67;;
40931;SDS011;36257;46.052;12.540;2022-10-16T00:25:43;46.22;;;37.25;;
40931;SDS011;36257;46.052;12.540;2022-10-16T00:28:09;43.20;;;36.28;;
40931;SDS011;36257;46.052;12.540;2022-10-16T00:30:37;45.15;;;38.15;;
40931;SDS011;36257;46.052;12.540;2022-10-16T00:33:03;50.65;;;39.05;;
40931;SDS011;36257;46.052;12.540;2022-10-16T00:35:30;45.60;;;39.30;;
40931;SDS011;36257;46.052;12.540;2022-10-16T00:37:56;47.63;;;39.03;;
40931;SDS011;36257;46.052;12.540;2022-10-16T00:40:21;45.38;;;36.42;;
40931;SDS011;36257;46.052;12.540;2022-10-16T00:42:47;42.47;;;37.47;;
40931;SDS011;36257;46.052;12.540;2022-10-16T00:45:12;42.65;;;36.20;;
40931;SDS011;36257;46.052;12.540;2022-10-16T00:47:42;44.42;;;37.72;;
40931;SDS011;36257;46.052;12.540;2022-10-16T00:50:22;42.95;;;37.70;;
40931;SDS011;36257;46.052;12.540;2022-10-16T00:52:49;44.35;;;37.88;;
40931;SDS011;36257;46.052;12.540;2022-10-16T00:55:16;44.92;;;38.80;;
40931;SDS011;36257;46.052;12.540;2022-10-16T00:57:42;48.92;;;37.70;;
40931;SDS011;36257;46.052;12.540;2022-10-16T01:00:09;50.23;;;40.87;;
40931;SDS011;36257;46.052;12.540;2022-10-16T01:02:36;49.63;;;38.85;;
40931;SDS011;36257;46.052;12.540;2022-10-16T01:05:02;50.55;;;39.97;;
40931;SDS011;36257;46.052;12.540;2022-10-16T01:10:40;47.83;;;40.83;;
40931;SDS011;36257;46.052;12.540;2022-10-16T01:13:38;50.03;;;41.55;;
40931;SDS011;36257;46.052;12.540;2022-10-16T01:16:55;66.40;;;41.75;;
40931;SDS011;36257;46.052;12.540;2022-10-16T01:18:57;52.25;;;39.80;;
40931;SDS011;36257;46.052;12.540;2022-10-16T01:21:41;48.63;;;39.63;;
40931;SDS011;36257;46.052;12.540;2022-10-16T01:27:09;50.83;;;41.08;;
40931;SDS011;36257;46.052;12.540;2022-10-16T01:32:40;49.67;;;40.28;;
40931;SDS011;36257;46.052;12.540;2022-10-16T01:35:14;50.10;;;41.17;;
40931;SDS011;36257;46.052;12.540;2022-10-16T01:40:34;49.72;;;41.72;;
40931;SDS011;36257;46.052;12.540;2022-10-16T01:43:04;51.22;;;42.45;;
40931;SDS011;36257;46.052;12.540;2022-10-16T01:45:33;53.28;;;42.72;;
40931;SDS011;36257;46.052;12.540;2022-10-16T01:48:01;52.10;;;43.97;;
40931;SDS011;36257;46.052;12.540;2022-10-16T01:50:29;51.15;;;42.33;;
40931;SDS011;36257;46.052;12.540;2022-10-16T01:52:58;54.30;;;44.30;;
40931;SDS011;36257;46.052;12.540;2022-10-16T01:55:30;59.03;;;45.22;;
40931;SDS011;36257;46.052;12.540;2022-10-16T01:57:59;52.72;;;43.53;;
40931;SDS011;36257;46.052;12.540;2022-10-16T02:00:27;54.60;;;42.10;;
40931;SDS011;36257;46.052;12.540;2022-10-16T02:02:55;52.33;;;41.67;;
40931;SDS011;36257;46.052;12.540;2022-10-16T02:05:26;49.65;;;42.30;;
40931;SDS011;36257;46.052;12.540;2022-10-16T02:08:18;50.80;;;42.88;;
40931;SDS011;36257;46.052;12.540;2022-10-16T02:10:44;52.42;;;41.65;;
40931;SDS011;36257;46.052;12.540;2022-10-16T02:13:11;48.03;;;40.28;;
40931;SDS011;36257;46.052;12.540;2022-10-16T02:15:42;51.30;;;40.47;;
40931;SDS011;36257;46.052;12.540;2022-10-16T02:18:07;51.00;;;41.78;;
40931;SDS011;36257;46.052;12.540;2022-10-16T02:23:04;58.88;;;45.92;;
40931;SDS011;36257;46.052;12.540;2022-10-16T02:25:35;56.20;;;46.58;;
40931;SDS011;36257;46.052;12.540;2022-10-16T02:28:24;56.35;;;45.55;;
40931;SDS011;36257;46.052;12.540;2022-10-16T02:30:56;54.92;;;44.92;;
40931;SDS011;36257;46.052;12.540;2022-10-16T02:33:26;53.92;;;44.58;;
40931;SDS011;36257;46.052;12.540;2022-10-16T02:35:53;55.15;;;43.97;;
40931;SDS011;36257;46.052;12.540;2022-10-16T02:38:20;58.05;;;47.28;;
40931;SDS011;36257;46.052;12.540;2022-10-16T02:40:47;62.78;;;48.42;;
40931;SDS011;36257;46.052;12.540;2022-10-16T02:43:13;57.38;;;45.83;;
40931;SDS011;36257;46.052;12.540;2022-10-16T02:45:40;55.30;;;44.20;;
40931;SDS011;36257;46.052;12.540;2022-10-16T02:48:05;65.55;;;46.45;;
40931;SDS011;36257;46.052;12.540;2022-10-16T02:50:31;63.78;;;45.88;;
40931;SDS011;36257;46.052;12.540;2022-10-16T02:52:57;56.15;;;45.50;;
40931;SDS011;36257;46.052;12.540;2022-10-16T02:55:22;58.00;;;44.75;;
40931;SDS011;36257;46.052;12.540;2022-10-16T02:57:48;57.45;;;43.60;;
40931;SDS011;36257;46.052;12.540;2022-10-16T03:00:15;53.33;;;43.33;;
40931;SDS011;36257;46.052;12.540;2022-10-16T03:02:41;54.70;;;43.78;;
40931;SDS011;36257;46.052;12.540;2022-10-16T03:05:07;59.13;;;46.72;;
40931;SDS011;36257;46.052;12.540;2022-10-16T03:07:34;51.75;;;42.17;;
40931;SDS011;36257;46.052;12.540;2022-10-16T03:09:59;52.92;;;41.78;;
40931;SDS011;36257;46.052;12.540;2022-10-16T03:12:26;50.95;;;40.15;;
40931;SDS011;36257;46.052;12.540;2022-10-16T03:14:52;52.25;;;42.47;;
40931;SDS011;36257;46.052;12.540;2022-10-16T03:17:18;50.58;;;39.38;;
40931;SDS011;36257;46.052;12.540;2022-10-16T03:19:43;51.63;;;41.50;;
40931;SDS011;36257;46.052;12.540;2022-10-16T03:22:09;48.75;;;40.33;;
40931;SDS011;36257;46.052;12.540;2022-10-16T03:24:34;51.80;;;41.35;;
40931;SDS011;36257;46.052;12.540;2022-10-16T03:27:00;51.58;;;40.42;;
40931;SDS011;36257;46.052;12.540;2022-10-16T03:29:26;48.88;;;38.97;;
40931;SDS011;36257;46.052;12.540;2022-10-16T03:31:54;47.30;;;38.20;;
40931;SDS011;36257;46.052;12.540;2022-10-16T03:34:20;50.17;;;40.08;;
40931;SDS011;36257;46.052;12.540;2022-10-16T03:36:46;45.22;;;36.83;;
40931;SDS011;36257;46.052;12.540;2022-10-16T03:39:11;51.72;;;40.15;;
40931;SDS011;36257;46.052;12.540;2022-10-16T03:41:37;48.83;;;38.35;;
40931;SDS011;36257;46.052;12.540;2022-10-16T03:44:03;50.63;;;40.13;;
40931;SDS011;36257;46.052;12.540;2022-10-16T03:46:28;46.60;;;37.85;;
40931;SDS011;36257;46.052;12.540;2022-10-16T03:48:54;48.10;;;37.55;;
40931;SDS011;36257;46.052;12.540;2022-10-16T03:51:20;49.67;;;38.53;;
40931;SDS011;36257;46.052;12.540;2022-10-16T03:53:46;48.42;;;38.88;;
40931;SDS011;36257;46.052;12.540;2022-10-16T03:56:11;46.60;;;37.95;;
40931;SDS011;36257;46.052;12.540;2022-10-16T03:58:37;46.95;;;37.22;;
40931;SDS011;36257;46.052;12.540;2022-10-16T04:01:02;51.50;;;39.78;;
40931;SDS011;36257;46.052;12.540;2022-10-16T04:03:28;52.33;;;38.70;;
40931;SDS011;36257;46.052;12.540;2022-10-16T04:05:54;52.85;;;39.42;;
40931;SDS011;36257;46.052;12.540;2022-10-16T04:08:19;55.45;;;40.00;;
40931;SDS011;36257;46.052;12.540;2022-10-16T04:10:45;50.25;;;39.78;;
40931;SDS011;36257;46.052;12.540;2022-10-16T04:13:11;52.30;;;40.45;;
40931;SDS011;36257;46.052;12.540;2022-10-16T04:15:37;47.03;;;38.30;;
40931;SDS011;36257;46.052;12.540;2022-10-16T04:18:03;52.67;;;39.90;;
40931;SDS011;36257;46.052;12.540;2022-10-16T04:20:29;49.03;;;39.42;;
40931;SDS011;36257;46.052;12.540;2022-10-16T04:22:55;48.47;;;39.15;;
40931;SDS011;36257;46.052;12.540;2022-10-16T04:25:21;49.08;;;39.85;;
40931;SDS011;36257;46.052;12.540;2022-10-16T04:27:46;54.20;;;40.78;;
40931;SDS011;36257;46.052;12.540;2022-10-16T04:30:12;52.15;;;42.00;;
40931;SDS011;36257;46.052;12.540;2022-10-16T04:32:38;50.85;;;40.08;;
40931;SDS011;36257;46.052;12.540;2022-10-16T04:35:04;51.10;;;41.03;;
40931;SDS011;36257;46.052;12.540;2022-10-16T04:37:31;49.47;;;40.38;;
40931;SDS011;36257;46.052;12.540;2022-10-16T04:39:56;46.33;;;38.30;;
40931;SDS011;36257;46.052;12.540;2022-10-16T04:42:22;45.70;;;38.45;;
40931;SDS011;36257;46.052;12.540;2022-10-16T04:44:48;50.03;;;38.55;;
40931;SDS011;36257;46.052;12.540;2022-10-16T04:47:13;44.85;;;36.42;;
40931;SDS011;36257;46.052;12.540;2022-10-16T04:49:39;44.40;;;36.85;;
40931;SDS011;36257;46.052;12.540;2022-10-16T04:52:05;48.88;;;38.08;;
40931;SDS011;36257;46.052;12.540;2022-10-16T04:54:31;46.00;;;37.88;;
40931;SDS011;36257;46.052;12.540;2022-10-16T04:56:56;46.47;;;36.20;;
40931;SDS011;36257;46.052;12.540;2022-10-16T04:59:22;47.13;;;37.70;;
40931;SDS011;36257;46.052;12.540;2022-10-16T05:01:48;50.67;;;39.35;;
40931;SDS011;36257;46.052;12.540;2022-10-16T05:04:17;49.22;;;37.85;;
40931;SDS011;36257;46.052;12.540;2022-10-16T05:06:42;49.22;;;39.38;;
40931;SDS011;36257;46.052;12.540;2022-10-16T05:09:08;53.05;;;40.53;;
40931;SDS011;36257;46.052;12.540;2022-10-16T05:11:35;43.00;;;36.85;;
40931;SDS011;36257;46.052;12.540;2022-10-16T05:14:00;44.50;;;36.25;;
40931;SDS011;36257;46.052;12.540;2022-10-16T05:16:26;46.90;;;37.95;;
40931;SDS011;36257;46.052;12.540;2022-10-16T05:18:52;45.95;;;37.03;;
40931;SDS011;36257;46.052;12.540;2022-10-16T05:21:18;47.42;;;38.70;;
40931;SDS011;36257;46.052;12.540;2022-10-16T05:23:43;49.38;;;38.65;;
40931;SDS011;36257;46.052;12.540;2022-10-16T05:26:09;43.47;;;36.63;;
40931;SDS011;36257;46.052;12.540;2022-10-16T05:28:35;49.35;;;38.65;;
40931;SDS011;36257;46.052;12.540;2022-10-16T05:31:05;41.88;;;34.45;;
40931;SDS011;36257;46.052;12.540;2022-10-16T05:33:31;47.47;;;36.20;;
40931;SDS011;36257;46.052;12.540;2022-10-16T05:36:00;45.33;;;37.08;;
40931;SDS011;36257;46.052;12.540;2022-10-16T05:38:29;49.15;;;39.03;;
40931;SDS011;36257;46.052;12.540;2022-10-16T05:40:55;47.92;;;38.22;;
40931;SDS011;36257;46.052;12.540;2022-10-16T05:43:21;47.25;;;37.55;;
40931;SDS011;36257;46.052;12.540;2022-10-16T05:45:57;47.97;;;36.10;;
40931;SDS011;36257;46.052;12.540;2022-10-16T05:48:25;48.00;;;37.08;;
40931;SDS011;36257;46.052;12.540;2022-10-16T05:51:04;52.28;;;37.42;;
40931;SDS011;36257;46.052;12.540;2022-10-16T05:53:35;50.70;;;37.85;;
40931;SDS011;36257;46.052;12.540;2022-10-16T05:56:01;47.83;;;37.15;;
40931;SDS011;36257;46.052;12.540;2022-10-16T05:58:29;51.55;;;38.40;;
40931;SDS011;36257;46.052;12.540;2022-10-16T06:01:06;47.70;;;37.25;;
40931;SDS011;36257;46.052;12.540;2022-10-16T06:03:36;47.67;;;37.58;;
40931;SDS011;36257;46.052;12.540;2022-10-16T06:06:12;48.35;;;38.28;;
40931;SDS011;36257;46.052;12.540;2022-10-16T06:08:40;48.78;;;37.65;;
40931;SDS011;36257;46.052;12.540;2022-10-16T06:11:08;46.42;;;37.45;;
40931;SDS011;36257;46.052;12.540;2022-10-16T06:13:36;45.63;;;37.78;;
40931;SDS011;36257;46.052;12.540;2022-10-16T06:16:02;45.63;;;36.45;;
40931;SDS011;36257;46.052;12.540;2022-10-16T06:18:29;44.43;;;33.70;;
40931;SDS011;36257;46.052;12.540;2022-10-16T06:20:55;41.28;;;33.88;;
40931;SDS011;36257;46.052;12.540;2022-10-16T06:23:22;42.75;;;33.45;;
40931;SDS011;36257;46.052;12.540;2022-10-16T06:25:48;42.40;;;34.67;;
40931;SDS011;36257;46.052;12.540;2022-10-16T06:28:14;41.42;;;34.33;;
40931;SDS011;36257;46.052;12.540;2022-10-16T06:30:40;43.70;;;34.05;;
40931;SDS011;36257;46.052;12.540;2022-10-16T06:33:08;43.40;;;33.22;;
40931;SDS011;36257;46.052;12.540;2022-10-16T06:35:35;44.47;;;33.93;;
40931;SDS011;36257;46.052;12.540;2022-10-16T06:38:01;41.67;;;33.92;;
40931;SDS011;36257;46.052;12.540;2022-10-16T06:40:26;40.95;;;34.88;;
40931;SDS011;36257;46.052;12.540;2022-10-16T06:42:54;38.63;;;33.53;;
40931;SDS011;36257;46.052;12.540;2022-10-16T06:45:20;46.15;;;35.75;;
40931;SDS011;36257;46.052;12.540;2022-10-16T06:47:46;41.10;;;34.17;;
40931;SDS011;36257;46.052;12.540;2022-10-16T06:50:11;42.03;;;34.47;;
40931;SDS011;36257;46.052;12.540;2022-10-16T06:52:37;40.55;;;34.80;;
40931;SDS011;36257;46.052;12.540;2022-10-16T06:55:03;42.90;;;34.60;;
40931;SDS011;36257;46.052;12.540;2022-10-16T06:57:28;41.65;;;35.45;;
40931;SDS011;36257;46.052;12.540;2022-10-16T06:59:54;45.97;;;35.42;;
40931;SDS011;36257;46.052;12.540;2022-10-16T07:02:20;40.47;;;34.03;;
40931;SDS011;36257;46.052;12.540;2022-10-16T07:04:45;43.42;;;34.65;;
40931;SDS011;36257;46.052;12.540;2022-10-16T07:07:11;42.20;;;35.70;;
40931;SDS011;36257;46.052;12.540;2022-10-16T07:09:36;41.55;;;35.05;;
40931;SDS011;36257;46.052;12.540;2022-10-16T07:12:02;45.80;;;38.60;;
40931;SDS011;36257;46.052;12.540;2022-10-16T07:14:28;46.33;;;37.45;;
40931;SDS011;36257;46.052;12.540;2022-10-16T07:16:55;40.90;;;35.23;;
40931;SDS011;36257;46.052;12.540;2022-10-16T07:19:20;46.30;;;36.80;;
40931;SDS011;36257;46.052;12.540;2022-10-16T07:21:46;45.88;;;37.90;;
40931;SDS011;36257;46.052;12.540;2022-10-16T07:24:13;45.67;;;38.17;;
40931;SDS011;36257;46.052;12.540;2022-10-16T07:26:40;52.88;;;42.83;;
40931;SDS011;36257;46.052;12.540;2022-10-16T07:29:15;54.88;;;45.88;;
40931;SDS011;36257;46.052;12.540;2022-10-16T07:31:42;49.20;;;40.63;;
40931;SDS011;36257;46.052;12.540;2022-10-16T07:34:08;55.08;;;43.38;;
40931;SDS011;36257;46.052;12.540;2022-10-16T07:36:35;51.58;;;42.67;;
40931;SDS011;36257;46.052;12.540;2022-10-16T07:39:01;56.72;;;43.35;;
40931;SDS011;36257;46.052;12.540;2022-10-16T07:41:27;56.95;;;45.63;;
40931;SDS011;36257;46.052;12.540;2022-10-16T07:43:53;56.88;;;44.22;;
40931;SDS011;36257;46.052;12.540;2022-10-16T07:46:19;50.80;;;42.50;;
40931;SDS011;36257;46.052;12.540;2022-10-16T07:48:47;57.38;;;47.20;;
40931;SDS011;36257;46.052;12.540;2022-10-16T07:51:14;57.78;;;47.03;;
40931;SDS011;36257;46.052;12.540;2022-10-16T07:53:41;53.55;;;44.67;;
40931;SDS011;36257;46.052;12.540;2022-10-16T07:56:06;66.20;;;47.42;;
40931;SDS011;36257;46.052;12.540;2022-10-16T07:58:33;57.95;;;48.33;;
40931;SDS011;36257;46.052;12.540;2022-10-16T08:01:08;55.38;;;46.47;;
40931;SDS011;36257;46.052;12.540;2022-10-16T08:03:36;56.70;;;46.63;;
40931;SDS011;36257;46.052;12.540;2022-10-16T08:06:02;55.28;;;45.88;;
40931;SDS011;36257;46.052;12.540;2022-10-16T08:08:29;57.92;;;45.40;;
40931;SDS011;36257;46.052;12.540;2022-10-16T08:10:55;66.38;;;53.75;;
40931;SDS011;36257;46.052;12.540;2022-10-16T08:13:20;63.70;;;52.58;;
40931;SDS011;36257;46.052;12.540;2022-10-16T08:15:46;61.65;;;49.22;;
40931;SDS011;36257;46.052;12.540;2022-10-16T08:18:13;54.97;;;47.03;;
40931;SDS011;36257;46.052;12.540;2022-10-16T08:20:40;64.43;;;49.47;;
40931;SDS011;36257;46.052;12.540;2022-10-16T08:23:07;58.85;;;48.22;;
40931;SDS011;36257;46.052;12.540;2022-10-16T08:25:34;61.60;;;49.17;;
40931;SDS011;36257;46.052;12.540;2022-10-16T08:28:03;56.92;;;47.42;;
40931;SDS011;36257;46.052;12.540;2022-10-16T08:30:29;60.20;;;47.78;;
40931;SDS011;36257;46.052;12.540;2022-10-16T08:32:55;62.58;;;47.92;;
40931;SDS011;36257;46.052;12.540;2022-10-16T08:35:21;58.67;;;48.80;;
40931;SDS011;36257;46.052;12.540;2022-10-16T08:37:46;58.70;;;45.80;;
40931;SDS011;36257;46.052;12.540;2022-10-16T08:40:16;57.53;;;47.38;;
40931;SDS011;36257;46.052;12.540;2022-10-16T08:48:27;55.78;;;46.58;;
40931;SDS011;36257;46.052;12.540;2022-10-16T08:51:06;56.80;;;48.25;;
40931;SDS011;36257;46.052;12.540;2022-10-16T08:53:48;53.88;;;43.85;;
40931;SDS011;36257;46.052;12.540;2022-10-16T08:56:17;60.55;;;47.30;;
40931;SDS011;36257;46.052;12.540;2022-10-16T08:58:43;66.30;;;47.92;;
40931;SDS011;36257;46.052;12.540;2022-10-16T09:17:49;55.65;;;45.75;;
40931;SDS011;36257;46.052;12.540;2022-10-16T09:20:50;58.75;;;47.58;;
40931;SDS011;36257;46.052;12.540;2022-10-16T09:23:26;53.83;;;44.20;;
40931;SDS011;36257;46.052;12.540;2022-10-16T09:25:54;51.97;;;45.50;;
40931;SDS011;36257;46.052;12.540;2022-10-16T09:28:21;55.38;;;45.90;;
40931;SDS011;36257;46.052;12.540;2022-10-16T09:30:47;55.72;;;46.25;;
40931;SDS011;36257;46.052;12.540;2022-10-16T09:33:14;63.83;;;48.50;;
40931;SDS011;36257;46.052;12.540;2022-10-16T09:35:43;62.13;;;48.85;;
40931;SDS011;36257;46.052;12.540;2022-10-16T09:40:56;61.72;;;49.47;;
40931;SDS011;36257;46.052;12.540;2022-10-16T09:43:40;59.65;;;47.10;;
40931;SDS011;36257;46.052;12.540;2022-10-16T09:49:04;59.70;;;47.45;;
40931;SDS011;36257;46.052;12.540;2022-10-16T09:51:43;63.22;;;50.88;;
40931;SDS011;36257;46.052;12.540;2022-10-16T09:56:35;64.32;;;50.78;;
40931;SDS011;36257;46.052;12.540;2022-10-16T09:59:13;58.97;;;49.55;;
40931;SDS011;36257;46.052;12.540;2022-10-16T10:01:51;56.08;;;46.92;;
40931;SDS011;36257;46.052;12.540;2022-10-16T10:04:18;62.17;;;50.30;;
40931;SDS011;36257;46.052;12.540;2022-10-16T10:11:47;63.08;;;50.63;;
40931;SDS011;36257;46.052;12.540;2022-10-16T10:14:27;57.58;;;46.53;;
40931;SDS011;36257;46.052;12.540;2022-10-16T10:19:37;58.75;;;48.13;;
40931;SDS011;36257;46.052;12.540;2022-10-16T10:22:49;60.03;;;50.85;;
40931;SDS011;36257;46.052;12.540;2022-10-16T10:30:43;63.58;;;49.90;;
40931;SDS011;36257;46.052;12.540;2022-10-16T10:33:20;62.75;;;49.28;;
40931;SDS011;36257;46.052;12.540;2022-10-16T10:38:56;58.72;;;49.92;;
40931;SDS011;36257;46.052;12.540;2022-10-16T10:41:35;66.57;;;50.22;;
40931;SDS011;36257;46.052;12.540;2022-10-16T11:07:59;67.30;;;52.45;;
40931;SDS011;36257;46.052;12.540;2022-10-16T11:10:29;70.25;;;54.03;;
40931;SDS011;36257;46.052;12.540;2022-10-16T11:13:14;68.22;;;51.80;;
40931;SDS011;36257;46.052;12.540;2022-10-16T11:15:49;73.13;;;53.33;;
40931;SDS011;36257;46.052;12.540;2022-10-16T11:18:20;66.18;;;53.83;;
40931;SDS011;36257;46.052;12.540;2022-10-16T11:21:00;67.57;;;52.85;;
40931;SDS011;36257;46.052;12.540;2022-10-16T11:23:42;69.28;;;54.28;;
40931;SDS011;36257;46.052;12.540;2022-10-16T11:26:17;68.97;;;52.40;;
40931;SDS011;36257;46.052;12.540;2022-10-16T11:28:49;61.40;;;48.60;;
40931;SDS011;36257;46.052;12.540;2022-10-16T11:31:39;67.85;;;53.42;;
40931;SDS011;36257;46.052;12.540;2022-10-16T11:34:31;60.10;;;48.35;;
40931;SDS011;36257;46.052;12.540;2022-10-16T11:37:27;63.75;;;52.15;;
40931;SDS011;36257;46.052;12.540;2022-10-16T11:40:05;69.32;;;53.53;;
40931;SDS011;36257;46.052;12.540;2022-10-16T11:46:02;69.32;;;53.65;;
40931;SDS011;36257;46.052;12.540;2022-10-16T11:48:39;73.03;;;54.88;;
40931;SDS011;36257;46.052;12.540;2022-10-16T11:51:14;71.68;;;52.13;;
40931;SDS011;36257;46.052;12.540;2022-10-16T11:56:35;69.30;;;53.90;;
40931;SDS011;36257;46.052;12.540;2022-10-16T11:59:18;67.68;;;52.92;;
40931;SDS011;36257;46.052;12.540;2022-10-16T12:02:19;69.10;;;53.80;;
40931;SDS011;36257;46.052;12.540;2022-10-16T12:04:59;68.18;;;52.88;;
40931;SDS011;36257;46.052;12.540;2022-10-16T12:08:07;63.45;;;51.30;;
40931;SDS011;36257;46.052;12.540;2022-10-16T12:10:36;73.20;;;55.67;;
40931;SDS011;36257;46.052;12.540;2022-10-16T12:13:05;67.63;;;52.40;;
40931;SDS011;36257;46.052;12.540;2022-10-16T12:16:04;68.55;;;51.03;;
40931;SDS011;36257;46.052;12.540;2022-10-16T12:18:30;69.90;;;56.97;;
40931;SDS011;36257;46.052;12.540;2022-10-16T12:20:58;65.43;;;53.45;;
40931;SDS011;36257;46.052;12.540;2022-10-16T12:23:53;57.55;;;45.28;;
40931;SDS011;36257;46.052;12.540;2022-10-16T12:28:52;67.70;;;54.83;;
40931;SDS011;36257;46.052;12.540;2022-10-16T12:31:19;72.60;;;56.83;;
40931;SDS011;36257;46.052;12.540;2022-10-16T12:33:58;71.15;;;55.58;;
40931;SDS011;36257;46.052;12.540;2022-10-16T12:36:27;71.72;;;55.20;;
40931;SDS011;36257;46.052;12.540;2022-10-16T12:38:59;61.55;;;47.45;;
40931;SDS011;36257;46.052;12.540;2022-10-16T12:41:27;68.00;;;54.83;;
40931;SDS011;36257;46.052;12.540;2022-10-16T12:43:56;73.15;;;54.63;;
40931;SDS011;36257;46.052;12.540;2022-10-16T12:51:37;67.55;;;53.10;;
40931;SDS011;36257;46.052;12.540;2022-10-16T12:54:04;72.13;;;54.85;;
40931;SDS011;36257;46.052;12.540;2022-10-16T12:59:35;69.55;;;52.55;;
40931;SDS011;36257;46.052;12.540;2022-10-16T13:07:53;74.53;;;56.05;;
40931;SDS011;36257;46.052;12.540;2022-10-16T13:10:59;77.85;;;61.05;;
40931;SDS011;36257;46.052;12.540;2022-10-16T13:13:50;74.85;;;53.40;;
40931;SDS011;36257;46.052;12.540;2022-10-16T13:16:24;68.38;;;52.03;;
40931;SDS011;36257;46.052;12.540;2022-10-16T13:27:10;62.28;;;50.92;;
40931;SDS011;36257;46.052;12.540;2022-10-16T13:29:52;61.13;;;50.28;;
40931;SDS011;36257;46.052;12.540;2022-10-16T13:32:20;61.88;;;51.50;;
40931;SDS011;36257;46.052;12.540;2022-10-16T13:34:47;61.75;;;49.47;;
40931;SDS011;36257;46.052;12.540;2022-10-16T13:37:24;69.53;;;51.17;;
40931;SDS011;36257;46.052;12.540;2022-10-16T13:39:50;63.37;;;51.07;;
40931;SDS011;36257;46.052;12.540;2022-10-16T13:42:26;61.65;;;50.50;;
40931;SDS011;36257;46.052;12.540;2022-10-16T13:50:00;59.17;;;47.45;;
40931;SDS011;36257;46.052;12.540;2022-10-16T13:52:27;57.63;;;46.25;;
40931;SDS011;36257;46.052;12.540;2022-10-16T13:54:55;65.20;;;50.17;;
40931;SDS011;36257;46.052;12.540;2022-10-16T13:57:22;61.38;;;48.80;;
40931;SDS011;36257;46.052;12.540;2022-10-16T13:59:49;64.70;;;51.00;;
40931;SDS011;36257;46.052;12.540;2022-10-16T14:04:51;65.85;;;50.38;;
40931;SDS011;36257;46.052;12.540;2022-10-16T14:07:23;63.95;;;50.90;;
40931;SDS011;36257;46.052;12.540;2022-10-16T14:09:51;68.25;;;50.88;;
40931;SDS011;36257;46.052;12.540;2022-10-16T14:12:18;64.00;;;52.55;;
40931;SDS011;36257;46.052;12.540;2022-10-16T14:14:46;61.08;;;49.63;;
40931;SDS011;36257;46.052;12.540;2022-10-16T14:17:14;57.35;;;48.95;;
40931;SDS011;36257;46.052;12.540;2022-10-16T14:19:45;63.53;;;51.55;;
40931;SDS011;36257;46.052;12.540;2022-10-16T14:30:24;55.20;;;46.63;;
40931;SDS011;36257;46.052;12.540;2022-10-16T14:33:02;61.88;;;51.00;;
40931;SDS011;36257;46.052;12.540;2022-10-16T14:35:32;59.00;;;47.55;;
40931;SDS011;36257;46.052;12.540;2022-10-16T14:38:00;58.00;;;48.38;;
40931;SDS011;36257;46.052;12.540;2022-10-16T14:42:58;63.13;;;51.63;;
40931;SDS011;36257;46.052;12.540;2022-10-16T14:45:27;65.78;;;50.85;;
40931;SDS011;36257;46.052;12.540;2022-10-16T14:47:56;60.50;;;48.58;;
40931;SDS011;36257;46.052;12.540;2022-10-16T14:50:23;60.58;;;48.25;;
40931;SDS011;36257;46.052;12.540;2022-10-16T14:52:49;60.10;;;48.05;;
40931;SDS011;36257;46.052;12.540;2022-10-16T14:55:15;56.97;;;47.95;;
40931;SDS011;36257;46.052;12.540;2022-10-16T14:57:42;62.97;;;51.15;;
40931;SDS011;36257;46.052;12.540;2022-10-16T15:05:14;53.60;;;45.67;;
40931;SDS011;36257;46.052;12.540;2022-10-16T15:07:43;51.53;;;43.17;;
40931;SDS011;36257;46.052;12.540;2022-10-16T15:10:15;61.28;;;49.35;;
40931;SDS011;36257;46.052;12.540;2022-10-16T15:12:43;56.80;;;45.05;;
40931;SDS011;36257;46.052;12.540;2022-10-16T15:15:54;54.13;;;46.05;;
40931;SDS011;36257;46.052;12.540;2022-10-16T15:17:59;58.88;;;49.85;;
40931;SDS011;36257;46.052;12.540;2022-10-16T15:20:27;60.88;;;48.15;;
40931;SDS011;36257;46.052;12.540;2022-10-16T15:22:55;54.53;;;46.22;;
40931;SDS011;36257;46.052;12.540;2022-10-16T15:25:31;54.40;;;46.28;;
40931;SDS011;36257;46.052;12.540;2022-10-16T15:28:00;52.97;;;45.78;;
40931;SDS011;36257;46.052;12.540;2022-10-16T15:30:28;55.40;;;45.38;;
40931;SDS011;36257;46.052;12.540;2022-10-16T15:32:54;51.90;;;45.72;;
40931;SDS011;36257;46.052;12.540;2022-10-16T15:35:21;52.37;;;44.83;;
40931;SDS011;36257;46.052;12.540;2022-10-16T15:37:47;59.22;;;45.65;;
40931;SDS011;36257;46.052;12.540;2022-10-16T15:40:14;50.53;;;44.10;;
40931;SDS011;36257;46.052;12.540;2022-10-16T15:42:41;50.17;;;43.55;;
40931;SDS011;36257;46.052;12.540;2022-10-16T15:45:08;52.38;;;42.95;;
40931;SDS011;36257;46.052;12.540;2022-10-16T15:47:35;50.55;;;44.90;;
40931;SDS011;36257;46.052;12.540;2022-10-16T15:50:01;56.53;;;46.80;;
40931;SDS011;36257;46.052;12.540;2022-10-16T15:52:27;52.75;;;45.20;;
40931;SDS011;36257;46.052;12.540;2022-10-16T15:54:53;56.67;;;48.88;;
40931;SDS011;36257;46.052;12.540;2022-10-16T15:57:19;56.08;;;46.10;;
40931;SDS011;36257;46.052;12.540;2022-10-16T15:59:45;53.92;;;47.95;;
40931;SDS011;36257;46.052;12.540;2022-10-16T16:02:11;55.97;;;48.28;;
40931;SDS011;36257;46.052;12.540;2022-10-16T16:04:36;49.42;;;43.95;;
40931;SDS011;36257;46.052;12.540;2022-10-16T16:07:02;47.53;;;42.38;;
40931;SDS011;36257;46.052;12.540;2022-10-16T16:09:31;49.47;;;41.80;;
40931;SDS011;36257;46.052;12.540;2022-10-16T16:11:56;59.70;;;50.22;;
40931;SDS011;36257;46.052;12.540;2022-10-16T16:14:25;53.78;;;45.63;;
40931;SDS011;36257;46.052;12.540;2022-10-16T16:16:52;54.45;;;45.25;;
40931;SDS011;36257;46.052;12.540;2022-10-16T16:19:19;62.58;;;46.33;;
40931;SDS011;36257;46.052;12.540;2022-10-16T16:21:46;52.28;;;44.00;;
40931;SDS011;36257;46.052;12.540;2022-10-16T16:24:12;53.78;;;45.08;;
40931;SDS011;36257;46.052;12.540;2022-10-16T16:26:37;52.00;;;43.95;;
40931;SDS011;36257;46.052;12.540;2022-10-16T16:29:05;54.85;;;44.63;;
40931;SDS011;36257;46.052;12.540;2022-10-16T16:31:34;54.65;;;45.25;;
40931;SDS011;36257;46.052;12.540;2022-10-16T16:34:02;55.25;;;45.38;;
40931;SDS011;36257;46.052;12.540;2022-10-16T16:36:28;50.83;;;43.17;;
40931;SDS011;36257;46.052;12.540;2022-10-16T16:38:54;50.67;;;43.88;;
40931;SDS011;36257;46.052;12.540;2022-10-16T16:41:21;51.15;;;42.75;;